sensor_id;sensor_type;location;lat;lon;timestamp;P1;durP1;ratioP1;P2;durP2;ratioP2
68375;SDS011;55318;52.068;5.188;2023-04-23T00:01:06;35.5;;;18.7;;
68375;SDS011;55318;52.068;5.188;2023-04-23T00:02:43;39.9;;;20.41;;
68375;SDS011;55318;52.068;5.188;2023-04-23T00:04:20;39.9;;;20.41;;
68375;SDS011;55318;52.068;5.188;2023-04-23T00:07:39;39.9;;;20.41;;
68375;SDS011;55318;52.068;5.188;2023-04-23T00:09:18;43.8;;;18.2;;
68375;SDS011;55318;52.068;5.188;2023-04-23T00:10:57;43.7;;;18.0;;
68375;SDS011;55318;52.068;5.188;2023-04-23T00:12:34;39.5;;;18.2;;
68375;SDS011;55318;52.068;5.188;2023-04-23T00:15:48;39.71;;;19.41;;
68375;SDS011;55318;52.068;5.188;2023-04-23T00:17:25;39.6;;;18.0;;
68375;SDS011;55318;52.068;5.188;2023-04-23T00:19:01;32.3;;;17.7;;
68375;SDS011;55318;52.068;5.188;2023-04-23T00:22:14;37.5;;;17.2;;
68375;SDS011;55318;52.068;5.188;2023-04-23T00:23:51;36.31;;;18.2;;
68375;SDS011;55318;52.068;5.188;2023-04-23T00:25:28;40.71;;;17.8;;
68375;SDS011;55318;52.068;5.188;2023-04-23T00:28:41;39.1;;;20.2;;
68375;SDS011;55318;52.068;5.188;2023-04-23T00:30:17;40.31;;;19.91;;
68375;SDS011;55318;52.068;5.188;2023-04-23T00:31:53;35.81;;;17.2;;
68375;SDS011;55318;52.068;5.188;2023-04-23T00:33:29;37.9;;;18.2;;
68375;SDS011;55318;52.068;5.188;2023-04-23T00:36:43;46.5;;;20.11;;
68375;SDS011;55318;52.068;5.188;2023-04-23T00:38:20;42.3;;;20.9;;
68375;SDS011;55318;52.068;5.188;2023-04-23T00:39:56;38.0;;;20.41;;
68375;SDS011;55318;52.068;5.188;2023-04-23T00:43:09;40.81;;;19.8;;
68375;SDS011;55318;52.068;5.188;2023-04-23T00:44:45;43.7;;;20.3;;
68375;SDS011;55318;52.068;5.188;2023-04-23T00:46:23;40.4;;;19.91;;
68375;SDS011;55318;52.068;5.188;2023-04-23T00:49:37;38.1;;;19.8;;
68375;SDS011;55318;52.068;5.188;2023-04-23T00:51:14;40.9;;;19.91;;
68375;SDS011;55318;52.068;5.188;2023-04-23T00:52:52;42.4;;;20.9;;
68375;SDS011;55318;52.068;5.188;2023-04-23T00:54:28;41.7;;;20.0;;
68375;SDS011;55318;52.068;5.188;2023-04-23T00:57:42;41.0;;;20.11;;
68375;SDS011;55318;52.068;5.188;2023-04-23T00:59:19;42.8;;;20.0;;
68375;SDS011;55318;52.068;5.188;2023-04-23T01:00:56;37.6;;;19.41;;
68375;SDS011;55318;52.068;5.188;2023-04-23T01:04:12;47.8;;;22.7;;
68375;SDS011;55318;52.068;5.188;2023-04-23T01:05:51;51.4;;;23.5;;
68375;SDS011;55318;52.068;5.188;2023-04-23T01:07:28;45.6;;;22.5;;
68375;SDS011;55318;52.068;5.188;2023-04-23T01:09:05;46.9;;;21.2;;
68375;SDS011;55318;52.068;5.188;2023-04-23T01:12:20;38.81;;;19.2;;
68375;SDS011;55318;52.068;5.188;2023-04-23T01:13:57;41.1;;;21.1;;
68375;SDS011;55318;52.068;5.188;2023-04-23T01:15:34;37.5;;;17.61;;
68375;SDS011;55318;52.068;5.188;2023-04-23T01:18:47;40.5;;;20.0;;
68375;SDS011;55318;52.068;5.188;2023-04-23T01:20:23;41.1;;;21.0;;
68375;SDS011;55318;52.068;5.188;2023-04-23T01:22:00;40.21;;;19.41;;
68375;SDS011;55318;52.068;5.188;2023-04-23T01:25:14;37.4;;;17.91;;
68375;SDS011;55318;52.068;5.188;2023-04-23T01:26:50;38.1;;;19.0;;
68375;SDS011;55318;52.068;5.188;2023-04-23T01:28:28;40.9;;;19.7;;
68375;SDS011;55318;52.068;5.188;2023-04-23T01:30:05;37.21;;;20.11;;
68375;SDS011;55318;52.068;5.188;2023-04-23T01:33:19;36.81;;;18.3;;
68375;SDS011;55318;52.068;5.188;2023-04-23T01:34:55;37.81;;;18.91;;
68375;SDS011;55318;52.068;5.188;2023-04-23T01:36:32;38.31;;;18.0;;
68375;SDS011;55318;52.068;5.188;2023-04-23T01:39:48;35.4;;;17.91;;
68375;SDS011;55318;52.068;5.188;2023-04-23T01:41:25;35.1;;;18.91;;
68375;SDS011;55318;52.068;5.188;2023-04-23T01:43:03;40.71;;;18.11;;
68375;SDS011;55318;52.068;5.188;2023-04-23T01:44:42;35.81;;;17.61;;
68375;SDS011;55318;52.068;5.188;2023-04-23T01:47:56;34.21;;;17.41;;
68375;SDS011;55318;52.068;5.188;2023-04-23T01:49:33;41.9;;;18.0;;
68375;SDS011;55318;52.068;5.188;2023-04-23T01:51:09;39.71;;;19.11;;
68375;SDS011;55318;52.068;5.188;2023-04-23T01:54:22;35.5;;;17.91;;
68375;SDS011;55318;52.068;5.188;2023-04-23T01:55:57;38.0;;;18.91;;
68375;SDS011;55318;52.068;5.188;2023-04-23T01:57:36;35.6;;;17.11;;
68375;SDS011;55318;52.068;5.188;2023-04-23T02:00:49;33.21;;;17.61;;
68375;SDS011;55318;52.068;5.188;2023-04-23T02:02:26;40.31;;;18.8;;
68375;SDS011;55318;52.068;5.188;2023-04-23T02:04:02;34.4;;;17.8;;
68375;SDS011;55318;52.068;5.188;2023-04-23T02:05:40;34.1;;;17.3;;
68375;SDS011;55318;52.068;5.188;2023-04-23T02:08:54;37.0;;;18.3;;
68375;SDS011;55318;52.068;5.188;2023-04-23T02:10:30;35.9;;;17.3;;
68375;SDS011;55318;52.068;5.188;2023-04-23T02:12:06;30.6;;;17.61;;
68375;SDS011;55318;52.068;5.188;2023-04-23T02:15:18;33.9;;;17.61;;
68375;SDS011;55318;52.068;5.188;2023-04-23T02:16:54;37.31;;;16.7;;
68375;SDS011;55318;52.068;5.188;2023-04-23T02:18:30;38.81;;;18.2;;
68375;SDS011;55318;52.068;5.188;2023-04-23T02:21:45;28.8;;;16.61;;
68375;SDS011;55318;52.068;5.188;2023-04-23T02:23:21;35.81;;;16.8;;
68375;SDS011;55318;52.068;5.188;2023-04-23T02:24:57;32.21;;;15.8;;
68375;SDS011;55318;52.068;5.188;2023-04-23T02:26:34;34.31;;;15.7;;
68375;SDS011;55318;52.068;5.188;2023-04-23T02:29:47;29.3;;;16.61;;
68375;SDS011;55318;52.068;5.188;2023-04-23T02:31:24;33.0;;;15.5;;
68375;SDS011;55318;52.068;5.188;2023-04-23T02:33:00;31.1;;;15.0;;
68375;SDS011;55318;52.068;5.188;2023-04-23T02:36:13;33.8;;;17.41;;
68375;SDS011;55318;52.068;5.188;2023-04-23T02:37:50;38.71;;;16.61;;
68375;SDS011;55318;52.068;5.188;2023-04-23T02:39:27;31.5;;;16.0;;
68375;SDS011;55318;52.068;5.188;2023-04-23T02:42:40;30.9;;;16.4;;
68375;SDS011;55318;52.068;5.188;2023-04-23T02:44:16;32.9;;;16.11;;
68375;SDS011;55318;52.068;5.188;2023-04-23T02:45:53;33.0;;;17.11;;
68375;SDS011;55318;52.068;5.188;2023-04-23T02:47:29;33.71;;;17.3;;
68375;SDS011;55318;52.068;5.188;2023-04-23T02:50:42;33.71;;;17.3;;
68375;SDS011;55318;52.068;5.188;2023-04-23T02:52:19;34.81;;;17.8;;
68375;SDS011;55318;52.068;5.188;2023-04-23T02:53:55;32.71;;;16.3;;
68375;SDS011;55318;52.068;5.188;2023-04-23T02:57:09;34.21;;;16.7;;
68375;SDS011;55318;52.068;5.188;2023-04-23T02:58:45;35.5;;;16.7;;
68375;SDS011;55318;52.068;5.188;2023-04-23T03:00:22;33.1;;;15.8;;
68375;SDS011;55318;52.068;5.188;2023-04-23T03:03:36;28.0;;;14.8;;
68375;SDS011;55318;52.068;5.188;2023-04-23T03:05:13;32.0;;;17.2;;
68375;SDS011;55318;52.068;5.188;2023-04-23T03:06:49;35.21;;;16.4;;
68375;SDS011;55318;52.068;5.188;2023-04-23T03:08:25;33.1;;;15.6;;
68375;SDS011;55318;52.068;5.188;2023-04-23T03:11:39;33.6;;;16.0;;
68375;SDS011;55318;52.068;5.188;2023-04-23T03:13:15;32.0;;;15.6;;
68375;SDS011;55318;52.068;5.188;2023-04-23T03:14:51;32.8;;;16.4;;
68375;SDS011;55318;52.068;5.188;2023-04-23T03:18:05;27.8;;;15.3;;
68375;SDS011;55318;52.068;5.188;2023-04-23T03:19:41;29.1;;;14.7;;
68375;SDS011;55318;52.068;5.188;2023-04-23T03:21:17;27.0;;;14.2;;
68375;SDS011;55318;52.068;5.188;2023-04-23T03:24:29;29.8;;;16.61;;
68375;SDS011;55318;52.068;5.188;2023-04-23T03:26:05;32.9;;;16.0;;
68375;SDS011;55318;52.068;5.188;2023-04-23T03:27:42;28.1;;;14.9;;
68375;SDS011;55318;52.068;5.188;2023-04-23T03:29:18;35.4;;;16.3;;
68375;SDS011;55318;52.068;5.188;2023-04-23T03:32:30;29.6;;;15.0;;
68375;SDS011;55318;52.068;5.188;2023-04-23T03:34:06;30.5;;;15.7;;
68375;SDS011;55318;52.068;5.188;2023-04-23T03:35:42;25.4;;;13.2;;
68375;SDS011;55318;52.068;5.188;2023-04-23T03:38:55;28.0;;;14.6;;
68375;SDS011;55318;52.068;5.188;2023-04-23T03:40:32;28.4;;;14.6;;
68375;SDS011;55318;52.068;5.188;2023-04-23T03:42:08;27.0;;;15.0;;
68375;SDS011;55318;52.068;5.188;2023-04-23T03:45:20;28.9;;;15.1;;
68375;SDS011;55318;52.068;5.188;2023-04-23T03:46:56;30.4;;;14.3;;
68375;SDS011;55318;52.068;5.188;2023-04-23T03:48:32;26.7;;;13.3;;
68375;SDS011;55318;52.068;5.188;2023-04-23T03:50:08;27.6;;;13.8;;
68375;SDS011;55318;52.068;5.188;2023-04-23T03:53:23;26.2;;;14.1;;
68375;SDS011;55318;52.068;5.188;2023-04-23T03:54:59;28.6;;;12.9;;
68375;SDS011;55318;52.068;5.188;2023-04-23T03:56:36;26.2;;;14.8;;
68375;SDS011;55318;52.068;5.188;2023-04-23T03:59:48;25.5;;;13.2;;
68375;SDS011;55318;52.068;5.188;2023-04-23T04:01:24;24.7;;;12.8;;
68375;SDS011;55318;52.068;5.188;2023-04-23T04:03:00;23.5;;;12.3;;
68375;SDS011;55318;52.068;5.188;2023-04-23T04:06:13;25.1;;;13.1;;
68375;SDS011;55318;52.068;5.188;2023-04-23T04:07:50;28.7;;;14.1;;
68375;SDS011;55318;52.068;5.188;2023-04-23T04:09:26;24.6;;;12.6;;
68375;SDS011;55318;52.068;5.188;2023-04-23T04:11:03;25.0;;;13.9;;
68375;SDS011;55318;52.068;5.188;2023-04-23T04:14:15;24.4;;;13.3;;
68375;SDS011;55318;52.068;5.188;2023-04-23T04:15:51;25.4;;;12.6;;
68375;SDS011;55318;52.068;5.188;2023-04-23T04:17:28;25.2;;;13.5;;
68375;SDS011;55318;52.068;5.188;2023-04-23T04:20:42;27.8;;;14.3;;
68375;SDS011;55318;52.068;5.188;2023-04-23T04:22:18;23.1;;;12.2;;
68375;SDS011;55318;52.068;5.188;2023-04-23T04:23:55;24.4;;;13.3;;
68375;SDS011;55318;52.068;5.188;2023-04-23T04:27:08;24.2;;;13.7;;
68375;SDS011;55318;52.068;5.188;2023-04-23T04:28:44;26.7;;;12.3;;
68375;SDS011;55318;52.068;5.188;2023-04-23T04:30:20;20.8;;;11.7;;
68375;SDS011;55318;52.068;5.188;2023-04-23T04:31:57;23.5;;;12.3;;
68375;SDS011;55318;52.068;5.188;2023-04-23T04:35:09;24.2;;;12.8;;
68375;SDS011;55318;52.068;5.188;2023-04-23T04:36:45;22.9;;;12.0;;
68375;SDS011;55318;52.068;5.188;2023-04-23T04:38:22;25.9;;;12.1;;
68375;SDS011;55318;52.068;5.188;2023-04-23T04:41:35;25.9;;;12.1;;
68375;SDS011;55318;52.068;5.188;2023-04-23T04:43:11;21.1;;;12.0;;
68375;SDS011;55318;52.068;5.188;2023-04-23T04:44:47;22.6;;;11.3;;
68375;SDS011;55318;52.068;5.188;2023-04-23T04:48:00;24.3;;;12.5;;
68375;SDS011;55318;52.068;5.188;2023-04-23T04:49:37;21.1;;;12.0;;
68375;SDS011;55318;52.068;5.188;2023-04-23T04:51:13;23.6;;;12.1;;
68375;SDS011;55318;52.068;5.188;2023-04-23T04:54:26;17.5;;;10.9;;
68375;SDS011;55318;52.068;5.188;2023-04-23T04:56:02;22.0;;;11.4;;
68375;SDS011;55318;52.068;5.188;2023-04-23T04:57:39;21.2;;;10.8;;
68375;SDS011;55318;52.068;5.188;2023-04-23T04:59:17;20.11;;;11.0;;
68375;SDS011;55318;52.068;5.188;2023-04-23T05:02:30;17.11;;;10.1;;
68375;SDS011;55318;52.068;5.188;2023-04-23T05:04:06;17.8;;;10.9;;
68375;SDS011;55318;52.068;5.188;2023-04-23T05:05:42;21.9;;;11.0;;
68375;SDS011;55318;52.068;5.188;2023-04-23T05:08:55;21.4;;;11.4;;
68375;SDS011;55318;52.068;5.188;2023-04-23T05:10:32;21.6;;;9.81;;
68375;SDS011;55318;52.068;5.188;2023-04-23T05:12:08;20.7;;;11.4;;
68375;SDS011;55318;52.068;5.188;2023-04-23T05:15:21;19.41;;;10.4;;
68375;SDS011;55318;52.068;5.188;2023-04-23T05:16:57;19.41;;;9.6;;
68375;SDS011;55318;52.068;5.188;2023-04-23T05:18:33;20.7;;;11.3;;
68375;SDS011;55318;52.068;5.188;2023-04-23T05:20:10;17.7;;;10.21;;
68375;SDS011;55318;52.068;5.188;2023-04-23T05:23:23;16.7;;;9.71;;
68375;SDS011;55318;52.068;5.188;2023-04-23T05:24:59;17.41;;;9.6;;
68375;SDS011;55318;52.068;5.188;2023-04-23T05:26:35;18.7;;;10.1;;
68375;SDS011;55318;52.068;5.188;2023-04-23T05:29:48;16.9;;;9.5;;
68375;SDS011;55318;52.068;5.188;2023-04-23T05:31:24;19.11;;;9.6;;
68375;SDS011;55318;52.068;5.188;2023-04-23T05:33:01;14.8;;;8.1;;
68375;SDS011;55318;52.068;5.188;2023-04-23T05:36:14;15.9;;;8.6;;
68375;SDS011;55318;52.068;5.188;2023-04-23T05:37:50;17.8;;;10.4;;
68375;SDS011;55318;52.068;5.188;2023-04-23T05:39:26;16.3;;;9.9;;
68375;SDS011;55318;52.068;5.188;2023-04-23T05:41:03;17.7;;;9.81;;
68375;SDS011;55318;52.068;5.188;2023-04-23T05:44:15;18.8;;;9.6;;
68375;SDS011;55318;52.068;5.188;2023-04-23T05:45:51;15.6;;;9.31;;
68375;SDS011;55318;52.068;5.188;2023-04-23T05:47:27;14.5;;;8.1;;
68375;SDS011;55318;52.068;5.188;2023-04-23T05:50:40;15.6;;;8.2;;
68375;SDS011;55318;52.068;5.188;2023-04-23T05:52:17;13.7;;;8.5;;
68375;SDS011;55318;52.068;5.188;2023-04-23T05:53:54;13.7;;;8.31;;
68375;SDS011;55318;52.068;5.188;2023-04-23T05:57:06;17.8;;;9.21;;
68375;SDS011;55318;52.068;5.188;2023-04-23T05:58:42;17.8;;;9.1;;
68375;SDS011;55318;52.068;5.188;2023-04-23T06:00:18;13.7;;;8.0;;
68375;SDS011;55318;52.068;5.188;2023-04-23T06:03:30;15.4;;;8.9;;
68375;SDS011;55318;52.068;5.188;2023-04-23T06:05:07;15.3;;;8.2;;
68375;SDS011;55318;52.068;5.188;2023-04-23T06:06:44;14.2;;;8.31;;
68375;SDS011;55318;52.068;5.188;2023-04-23T06:08:20;13.0;;;7.8;;
68375;SDS011;55318;52.068;5.188;2023-04-23T06:11:32;13.7;;;8.1;;
68375;SDS011;55318;52.068;5.188;2023-04-23T06:13:08;13.9;;;7.5;;
68375;SDS011;55318;52.068;5.188;2023-04-23T06:14:44;15.6;;;7.8;;
68375;SDS011;55318;52.068;5.188;2023-04-23T06:17:59;15.8;;;8.4;;
68375;SDS011;55318;52.068;5.188;2023-04-23T06:19:35;13.8;;;8.0;;
68375;SDS011;55318;52.068;5.188;2023-04-23T06:21:11;12.0;;;7.8;;
68375;SDS011;55318;52.068;5.188;2023-04-23T06:24:24;13.3;;;7.7;;
68375;SDS011;55318;52.068;5.188;2023-04-23T06:26:01;15.7;;;7.0;;
68375;SDS011;55318;52.068;5.188;2023-04-23T06:27:37;11.3;;;6.3;;
68375;SDS011;55318;52.068;5.188;2023-04-23T06:29:14;12.9;;;7.0;;
68375;SDS011;55318;52.068;5.188;2023-04-23T06:32:27;8.5;;;5.8;;
68375;SDS011;55318;52.068;5.188;2023-04-23T06:34:03;12.8;;;7.0;;
68375;SDS011;55318;52.068;5.188;2023-04-23T06:35:39;14.9;;;6.9;;
68375;SDS011;55318;52.068;5.188;2023-04-23T06:38:52;13.5;;;5.8;;
68375;SDS011;55318;52.068;5.188;2023-04-23T06:40:28;9.71;;;6.3;;
68375;SDS011;55318;52.068;5.188;2023-04-23T06:42:05;9.71;;;6.4;;
68375;SDS011;55318;52.068;5.188;2023-04-23T06:45:18;10.1;;;6.2;;
68375;SDS011;55318;52.068;5.188;2023-04-23T06:46:54;9.5;;;5.7;;
68375;SDS011;55318;52.068;5.188;2023-04-23T06:50:07;9.6;;;5.7;;
68375;SDS011;55318;52.068;5.188;2023-04-23T06:53:21;9.9;;;5.8;;
68375;SDS011;55318;52.068;5.188;2023-04-23T06:54:57;6.7;;;5.0;;
68375;SDS011;55318;52.068;5.188;2023-04-23T06:56:33;9.31;;;4.5;;
68375;SDS011;55318;52.068;5.188;2023-04-23T06:59:45;9.31;;;4.5;;
68375;SDS011;55318;52.068;5.188;2023-04-23T07:01:22;10.21;;;5.2;;
68375;SDS011;55318;52.068;5.188;2023-04-23T07:02:58;9.0;;;4.7;;
68375;SDS011;55318;52.068;5.188;2023-04-23T07:06:11;8.4;;;5.0;;
68375;SDS011;55318;52.068;5.188;2023-04-23T07:07:48;9.0;;;5.4;;
68375;SDS011;55318;52.068;5.188;2023-04-23T07:09:25;7.9;;;4.7;;
68375;SDS011;55318;52.068;5.188;2023-04-23T07:11:01;11.4;;;5.11;;
68375;SDS011;55318;52.068;5.188;2023-04-23T07:14:14;5.7;;;4.3;;
68375;SDS011;55318;52.068;5.188;2023-04-23T07:15:51;7.3;;;4.61;;
68375;SDS011;55318;52.068;5.188;2023-04-23T07:17:27;7.4;;;4.0;;
68375;SDS011;55318;52.068;5.188;2023-04-23T07:20:39;7.9;;;4.41;;
68375;SDS011;55318;52.068;5.188;2023-04-23T07:22:16;6.5;;;3.9;;
68375;SDS011;55318;52.068;5.188;2023-04-23T07:23:53;8.6;;;4.1;;
68375;SDS011;55318;52.068;5.188;2023-04-23T07:27:07;5.6;;;3.8;;
68375;SDS011;55318;52.068;5.188;2023-04-23T07:28:44;6.4;;;4.1;;
68375;SDS011;55318;52.068;5.188;2023-04-23T07:30:22;6.1;;;3.3;;
68375;SDS011;55318;52.068;5.188;2023-04-23T07:32:00;6.1;;;3.6;;
68375;SDS011;55318;52.068;5.188;2023-04-23T07:35:13;10.9;;;4.0;;
68375;SDS011;55318;52.068;5.188;2023-04-23T07:36:50;5.9;;;3.7;;
68375;SDS011;55318;52.068;5.188;2023-04-23T07:38:26;5.0;;;3.2;;
68375;SDS011;55318;52.068;5.188;2023-04-23T07:41:41;9.21;;;3.9;;
68375;SDS011;55318;52.068;5.188;2023-04-23T07:43:17;7.7;;;4.0;;
68375;SDS011;55318;52.068;5.188;2023-04-23T07:44:53;5.11;;;2.8;;
68375;SDS011;55318;52.068;5.188;2023-04-23T07:48:05;4.5;;;3.3;;
68375;SDS011;55318;52.068;5.188;2023-04-23T07:49:42;4.5;;;2.7;;
68375;SDS011;55318;52.068;5.188;2023-04-23T07:51:20;3.9;;;2.31;;
68375;SDS011;55318;52.068;5.188;2023-04-23T07:52:57;6.6;;;2.8;;
68375;SDS011;55318;52.068;5.188;2023-04-23T07:56:09;7.0;;;2.7;;
68375;SDS011;55318;52.068;5.188;2023-04-23T07:57:46;4.61;;;2.6;;
68375;SDS011;55318;52.068;5.188;2023-04-23T07:59:22;3.2;;;2.6;;
68375;SDS011;55318;52.068;5.188;2023-04-23T08:02:37;6.1;;;3.6;;
68375;SDS011;55318;52.068;5.188;2023-04-23T08:04:14;5.0;;;2.6;;
68375;SDS011;55318;52.068;5.188;2023-04-23T08:05:50;4.91;;;2.9;;
68375;SDS011;55318;52.068;5.188;2023-04-23T08:09:02;5.5;;;2.7;;
68375;SDS011;55318;52.068;5.188;2023-04-23T08:10:39;5.2;;;2.6;;
68375;SDS011;55318;52.068;5.188;2023-04-23T08:12:16;6.1;;;2.7;;
68375;SDS011;55318;52.068;5.188;2023-04-23T08:13:54;6.8;;;2.8;;
68375;SDS011;55318;52.068;5.188;2023-04-23T08:17:07;6.0;;;2.5;;
68375;SDS011;55318;52.068;5.188;2023-04-23T08:18:43;6.0;;;3.5;;
68375;SDS011;55318;52.068;5.188;2023-04-23T08:20:20;5.5;;;3.0;;
68375;SDS011;55318;52.068;5.188;2023-04-23T08:23:32;4.61;;;2.8;;
68375;SDS011;55318;52.068;5.188;2023-04-23T08:25:09;3.6;;;2.4;;
68375;SDS011;55318;52.068;5.188;2023-04-23T08:26:46;6.5;;;2.6;;
68375;SDS011;55318;52.068;5.188;2023-04-23T08:28:22;4.5;;;2.31;;
68375;SDS011;55318;52.068;5.188;2023-04-23T08:31:35;4.7;;;2.7;;
68375;SDS011;55318;52.068;5.188;2023-04-23T08:33:12;6.5;;;2.7;;
68375;SDS011;55318;52.068;5.188;2023-04-23T08:34:49;6.2;;;2.6;;
68375;SDS011;55318;52.068;5.188;2023-04-23T08:38:01;3.8;;;2.31;;
68375;SDS011;55318;52.068;5.188;2023-04-23T08:39:38;5.4;;;2.21;;
68375;SDS011;55318;52.068;5.188;2023-04-23T08:41:17;5.2;;;2.6;;
68375;SDS011;55318;52.068;5.188;2023-04-23T08:44:39;5.0;;;2.5;;
68375;SDS011;55318;52.068;5.188;2023-04-23T08:46:17;10.21;;;2.31;;
68375;SDS011;55318;52.068;5.188;2023-04-23T08:47:55;5.11;;;3.3;;
68375;SDS011;55318;52.068;5.188;2023-04-23T08:49:34;5.7;;;2.5;;
68375;SDS011;55318;52.068;5.188;2023-04-23T08:52:56;5.8;;;2.6;;
68375;SDS011;55318;52.068;5.188;2023-04-23T08:54:32;6.0;;;2.6;;
68375;SDS011;55318;52.068;5.188;2023-04-23T08:56:12;4.1;;;2.5;;
68375;SDS011;55318;52.068;5.188;2023-04-23T08:57:49;3.3;;;1.9;;
68375;SDS011;55318;52.068;5.188;2023-04-23T09:01:05;7.4;;;2.4;;
68375;SDS011;55318;52.068;5.188;2023-04-23T09:02:43;6.0;;;2.21;;
68375;SDS011;55318;52.068;5.188;2023-04-23T09:04:20;5.5;;;2.21;;
68375;SDS011;55318;52.068;5.188;2023-04-23T09:07:34;5.11;;;2.5;;
68375;SDS011;55318;52.068;5.188;2023-04-23T09:09:11;8.6;;;2.7;;
68375;SDS011;55318;52.068;5.188;2023-04-23T09:10:51;6.0;;;2.0;;
68375;SDS011;55318;52.068;5.188;2023-04-23T09:12:31;5.4;;;2.9;;
68375;SDS011;55318;52.068;5.188;2023-04-23T09:15:47;5.7;;;2.6;;
68375;SDS011;55318;52.068;5.188;2023-04-23T09:17:24;3.1;;;1.5;;
68375;SDS011;55318;52.068;5.188;2023-04-23T09:19:04;3.3;;;1.9;;
68375;SDS011;55318;52.068;5.188;2023-04-23T09:20:42;2.8;;;1.6;;
68375;SDS011;55318;52.068;5.188;2023-04-23T09:24:27;6.2;;;2.1;;
68375;SDS011;55318;52.068;5.188;2023-04-23T09:26:04;7.8;;;2.0;;
68375;SDS011;55318;52.068;5.188;2023-04-23T09:27:42;3.2;;;1.9;;
68375;SDS011;55318;52.068;5.188;2023-04-23T09:29:19;4.5;;;1.9;;
68375;SDS011;55318;52.068;5.188;2023-04-23T09:32:34;5.3;;;2.4;;
68375;SDS011;55318;52.068;5.188;2023-04-23T09:34:13;7.3;;;2.0;;
68375;SDS011;55318;52.068;5.188;2023-04-23T09:35:50;7.0;;;1.9;;
68375;SDS011;55318;52.068;5.188;2023-04-23T09:37:26;5.3;;;1.7;;
68375;SDS011;55318;52.068;5.188;2023-04-23T09:40:46;4.2;;;1.7;;
68375;SDS011;55318;52.068;5.188;2023-04-23T09:42:25;3.7;;;2.21;;
68375;SDS011;55318;52.068;5.188;2023-04-23T09:44:02;2.4;;;1.3;;
68375;SDS011;55318;52.068;5.188;2023-04-23T09:47:23;7.1;;;2.4;;
68375;SDS011;55318;52.068;5.188;2023-04-23T09:49:00;3.2;;;1.6;;
68375;SDS011;55318;52.068;5.188;2023-04-23T09:50:39;7.0;;;2.21;;
68375;SDS011;55318;52.068;5.188;2023-04-23T09:52:16;5.8;;;1.9;;
68375;SDS011;55318;52.068;5.188;2023-04-23T09:55:30;2.8;;;1.7;;
68375;SDS011;55318;52.068;5.188;2023-04-23T09:57:07;2.21;;;1.6;;
68375;SDS011;55318;52.068;5.188;2023-04-23T09:58:44;6.5;;;2.0;;
68375;SDS011;55318;52.068;5.188;2023-04-23T10:01:57;3.0;;;1.7;;
68375;SDS011;55318;52.068;5.188;2023-04-23T10:03:40;4.3;;;1.4;;
68375;SDS011;55318;52.068;5.188;2023-04-23T10:05:17;2.4;;;1.8;;
68375;SDS011;55318;52.068;5.188;2023-04-23T10:06:55;4.2;;;1.5;;
68375;SDS011;55318;52.068;5.188;2023-04-23T10:10:10;5.9;;;2.5;;
68375;SDS011;55318;52.068;5.188;2023-04-23T10:11:47;3.1;;;2.0;;
68375;SDS011;55318;52.068;5.188;2023-04-23T10:13:26;3.8;;;1.6;;
68375;SDS011;55318;52.068;5.188;2023-04-23T10:15:03;4.0;;;1.3;;
68375;SDS011;55318;52.068;5.188;2023-04-23T10:18:19;2.21;;;1.3;;
68375;SDS011;55318;52.068;5.188;2023-04-23T10:19:56;5.6;;;1.4;;
68375;SDS011;55318;52.068;5.188;2023-04-23T10:21:35;2.9;;;1.3;;
68375;SDS011;55318;52.068;5.188;2023-04-23T10:24:55;2.0;;;1.11;;
68375;SDS011;55318;52.068;5.188;2023-04-23T10:26:33;2.9;;;1.11;;
68375;SDS011;55318;52.068;5.188;2023-04-23T10:28:13;4.7;;;1.9;;
68375;SDS011;55318;52.068;5.188;2023-04-23T10:29:54;5.2;;;1.7;;
68375;SDS011;55318;52.068;5.188;2023-04-23T10:33:09;2.9;;;1.5;;
68375;SDS011;55318;52.068;5.188;2023-04-23T10:34:47;4.8;;;1.7;;
68375;SDS011;55318;52.068;5.188;2023-04-23T10:36:23;5.8;;;1.7;;
68375;SDS011;55318;52.068;5.188;2023-04-23T10:39:39;4.1;;;1.3;;
68375;SDS011;55318;52.068;5.188;2023-04-23T10:41:20;1.8;;;1.11;;
68375;SDS011;55318;52.068;5.188;2023-04-23T10:43:02;2.7;;;1.6;;
68375;SDS011;55318;52.068;5.188;2023-04-23T10:44:38;8.31;;;1.7;;
68375;SDS011;55318;52.068;5.188;2023-04-23T10:48:10;4.61;;;1.2;;
68375;SDS011;55318;52.068;5.188;2023-04-23T10:49:47;6.5;;;1.4;;
68375;SDS011;55318;52.068;5.188;2023-04-23T10:51:31;2.9;;;1.4;;
68375;SDS011;55318;52.068;5.188;2023-04-23T10:53:09;1.9;;;1.0;;
68375;SDS011;55318;52.068;5.188;2023-04-23T10:54:56;4.1;;;1.5;;
68375;SDS011;55318;52.068;5.188;2023-04-23T10:58:09;2.1;;;1.2;;
68375;SDS011;55318;52.068;5.188;2023-04-23T10:59:50;2.4;;;1.0;;
68375;SDS011;55318;52.068;5.188;2023-04-23T11:01:27;4.8;;;1.3;;
68375;SDS011;55318;52.068;5.188;2023-04-23T11:04:40;3.3;;;1.3;;
68375;SDS011;55318;52.068;5.188;2023-04-23T11:08:28;1.7;;;0.6;;
68375;SDS011;55318;52.068;5.188;2023-04-23T11:10:10;2.7;;;1.3;;
68375;SDS011;55318;52.068;5.188;2023-04-23T11:11:47;2.4;;;1.4;;
68375;SDS011;55318;52.068;5.188;2023-04-23T11:15:09;2.8;;;1.3;;
68375;SDS011;55318;52.068;5.188;2023-04-23T11:16:47;1.4;;;1.0;;
68375;SDS011;55318;52.068;5.188;2023-04-23T11:18:23;4.91;;;1.2;;
68375;SDS011;55318;52.068;5.188;2023-04-23T11:20:08;3.5;;;1.4;;
68375;SDS011;55318;52.068;5.188;2023-04-23T11:23:40;1.3;;;1.11;;
68375;SDS011;55318;52.068;5.188;2023-04-23T11:25:21;3.8;;;1.2;;
68375;SDS011;55318;52.068;5.188;2023-04-23T11:26:58;1.9;;;0.8;;
68375;SDS011;55318;52.068;5.188;2023-04-23T11:28:35;3.0;;;0.9;;
68375;SDS011;55318;52.068;5.188;2023-04-23T11:31:57;4.91;;;1.11;;
68375;SDS011;55318;52.068;5.188;2023-04-23T11:33:34;0.9;;;0.6;;
68375;SDS011;55318;52.068;5.188;2023-04-23T11:35:12;4.41;;;1.0;;
68375;SDS011;55318;52.068;5.188;2023-04-23T11:36:50;5.3;;;0.9;;
68375;SDS011;55318;52.068;5.188;2023-04-23T11:40:07;4.0;;;1.0;;
68375;SDS011;55318;52.068;5.188;2023-04-23T11:41:46;2.6;;;1.2;;
68375;SDS011;55318;52.068;5.188;2023-04-23T11:43:22;1.8;;;1.2;;
68375;SDS011;55318;52.068;5.188;2023-04-23T11:46:35;3.2;;;0.9;;
68375;SDS011;55318;52.068;5.188;2023-04-23T11:48:11;1.7;;;0.8;;
68375;SDS011;55318;52.068;5.188;2023-04-23T11:49:47;3.0;;;1.11;;
68375;SDS011;55318;52.068;5.188;2023-04-23T11:51:24;1.11;;;0.8;;
68375;SDS011;55318;52.068;5.188;2023-04-23T11:54:40;2.0;;;1.3;;
68375;SDS011;55318;52.068;5.188;2023-04-23T11:56:17;2.4;;;0.7;;
68375;SDS011;55318;52.068;5.188;2023-04-23T11:57:55;1.7;;;0.8;;
68375;SDS011;55318;52.068;5.188;2023-04-23T12:01:09;1.5;;;0.9;;
68375;SDS011;55318;52.068;5.188;2023-04-23T12:02:49;3.4;;;1.11;;
68375;SDS011;55318;52.068;5.188;2023-04-23T12:04:31;6.5;;;1.4;;
68375;SDS011;55318;52.068;5.188;2023-04-23T12:06:08;0.9;;;0.7;;
68375;SDS011;55318;52.068;5.188;2023-04-23T12:09:24;3.8;;;1.0;;
68375;SDS011;55318;52.068;5.188;2023-04-23T12:11:01;8.71;;;0.9;;
68375;SDS011;55318;52.068;5.188;2023-04-23T12:12:38;1.11;;;0.7;;
68375;SDS011;55318;52.068;5.188;2023-04-23T12:15:53;1.5;;;1.11;;
68375;SDS011;55318;52.068;5.188;2023-04-23T12:17:32;2.31;;;1.11;;
68375;SDS011;55318;52.068;5.188;2023-04-23T12:19:08;6.7;;;1.8;;
68375;SDS011;55318;52.068;5.188;2023-04-23T12:20:48;3.0;;;0.8;;
68375;SDS011;55318;52.068;5.188;2023-04-23T12:24:03;2.0;;;0.8;;
68375;SDS011;55318;52.068;5.188;2023-04-23T12:25:39;3.2;;;0.8;;
68375;SDS011;55318;52.068;5.188;2023-04-23T12:27:17;1.3;;;1.0;;
68375;SDS011;55318;52.068;5.188;2023-04-23T12:30:41;4.3;;;1.0;;
68375;SDS011;55318;52.068;5.188;2023-04-23T12:32:19;2.0;;;1.4;;
68375;SDS011;55318;52.068;5.188;2023-04-23T12:34:01;3.3;;;0.8;;
68375;SDS011;55318;52.068;5.188;2023-04-23T12:35:39;2.6;;;1.3;;
68375;SDS011;55318;52.068;5.188;2023-04-23T12:38:51;2.8;;;1.8;;
68375;SDS011;55318;52.068;5.188;2023-04-23T12:40:28;1.3;;;0.8;;
68375;SDS011;55318;52.068;5.188;2023-04-23T12:42:04;1.7;;;1.0;;
68375;SDS011;55318;52.068;5.188;2023-04-23T12:43:42;3.5;;;0.9;;
68375;SDS011;55318;52.068;5.188;2023-04-23T12:46:55;0.9;;;0.7;;
68375;SDS011;55318;52.068;5.188;2023-04-23T12:48:33;1.11;;;0.7;;